createdAt,value
2023-04-07T00:00:43.633Z,0.30
2023-04-07T00:03:11.409Z,0.20
2023-04-07T00:05:38.203Z,0.20
2023-04-07T00:08:04.980Z,0.10
2023-04-07T00:10:32.165Z,0.20
2023-04-07T00:12:58.886Z,0.10
2023-04-07T00:15:25.636Z,0.10
2023-04-07T00:17:52.534Z,0.00
2023-04-07T00:20:19.549Z,0.00
2023-04-07T00:22:46.351Z,-0.10
2023-04-07T00:25:13.061Z,-0.10
2023-04-07T00:27:39.821Z,-0.20
2023-04-07T00:30:07.659Z,-0.20
2023-04-07T00:32:35.361Z,-0.20
2023-04-07T00:35:03.234Z,-0.20
2023-04-07T00:37:29.948Z,-0.20
2023-04-07T00:39:57.994Z,-0.30
2023-04-07T00:42:24.776Z,-0.30
2023-04-07T00:44:51.501Z,-0.30
2023-04-07T00:47:18.246Z,-0.30
2023-04-07T00:49:45.257Z,-0.30
2023-04-07T00:52:12.621Z,-0.30
2023-04-07T00:54:42.191Z,-0.20
2023-04-07T00:57:09.261Z,-0.30
2023-04-07T00:59:36.361Z,-0.30
2023-04-07T01:02:11.109Z,-0.30
2023-04-07T01:04:47.785Z,-0.30
2023-04-07T01:07:51.281Z,-0.30
2023-04-07T01:10:27.064Z,-0.30
2023-04-07T01:13:14.061Z,-0.30
2023-04-07T01:15:42.452Z,-0.40
2023-04-07T01:18:15.979Z,-0.40
2023-04-07T01:20:46.114Z,-0.30
2023-04-07T01:23:23.326Z,-0.40
2023-04-07T01:26:07.626Z,-0.30
2023-04-07T01:28:49.820Z,-0.30
2023-04-07T01:31:17.412Z,-0.20
2023-04-07T01:33:49.727Z,-0.20
2023-04-07T01:36:18.136Z,-0.20
2023-04-07T01:38:46.247Z,-0.10
2023-04-07T01:41:15.999Z,0.00
2023-04-07T01:43:44.538Z,0.10
2023-04-07T01:46:11.941Z,0.20
2023-04-07T01:48:40.369Z,0.20
2023-04-07T01:51:08.482Z,0.30
2023-04-07T01:53:37.889Z,0.30
2023-04-07T01:56:05.793Z,0.30
2023-04-07T01:58:32.988Z,0.30
2023-04-07T02:01:00.097Z,0.30
2023-04-07T02:03:38.919Z,0.30
2023-04-07T02:06:08.430Z,0.20
2023-04-07T02:08:36.943Z,0.30
2023-04-07T02:11:05.594Z,0.30
2023-04-07T02:13:34.273Z,0.30
2023-04-07T02:16:02.636Z,0.30
2023-04-07T02:18:32.278Z,0.30
2023-04-07T02:21:01.376Z,0.30
2023-04-07T02:23:28.335Z,0.30
2023-04-07T02:25:58.300Z,0.30
2023-04-07T02:28:25.039Z,0.30
2023-04-07T02:30:51.817Z,0.20
2023-04-07T02:33:18.561Z,0.20
2023-04-07T02:35:45.402Z,0.10
2023-04-07T02:38:12.131Z,0.20
2023-04-07T02:40:38.900Z,0.20
2023-04-07T02:43:05.655Z,0.20
2023-04-07T02:45:32.434Z,0.20
2023-04-07T02:47:59.209Z,0.20
2023-04-07T02:50:26.231Z,0.20
2023-04-07T02:52:52.933Z,0.30
2023-04-07T02:55:19.769Z,0.30
2023-04-07T02:57:46.450Z,0.40
2023-04-07T03:00:14.467Z,0.30
2023-04-07T03:02:41.441Z,0.30
2023-04-07T03:05:08.551Z,0.30
2023-04-07T03:07:35.271Z,0.20
2023-04-07T03:10:02.041Z,0.20
2023-04-07T03:12:28.780Z,0.30
2023-04-07T03:14:55.672Z,0.30
2023-04-07T03:17:22.466Z,0.30
2023-04-07T03:19:49.303Z,0.30
2023-04-07T03:22:16.224Z,0.30
2023-04-07T03:24:42.900Z,0.30
2023-04-07T03:27:09.602Z,0.30
2023-04-07T03:29:36.413Z,0.30
2023-04-07T03:32:03.151Z,0.40
2023-04-07T03:34:29.853Z,0.50
2023-04-07T03:36:56.539Z,0.50
2023-04-07T03:39:23.321Z,0.60
2023-04-07T03:41:50.147Z,0.60
2023-04-07T03:44:16.865Z,0.60
2023-04-07T03:46:45.491Z,0.60
2023-04-07T03:49:12.251Z,0.60
2023-04-07T03:51:38.973Z,0.70
2023-04-07T03:54:05.802Z,0.70
2023-04-07T03:56:32.707Z,0.70
2023-04-07T03:58:59.434Z,0.70
2023-04-07T04:01:26.381Z,0.80
2023-04-07T04:03:53.403Z,0.90
2023-04-07T04:06:22.543Z,0.90
2023-04-07T04:08:49.237Z,1.00
2023-04-07T04:11:16.265Z,1.00
2023-04-07T04:13:42.996Z,1.00
2023-04-07T04:16:10.115Z,1.00
2023-04-07T04:18:36.979Z,1.00
2023-04-07T04:21:04.003Z,1.00
2023-04-07T04:23:30.808Z,1.00
2023-04-07T04:26:00.152Z,1.00
2023-04-07T04:28:27.039Z,1.00
2023-04-07T04:30:53.778Z,1.00
2023-04-07T04:33:20.850Z,1.00
2023-04-07T04:35:47.587Z,1.10
2023-04-07T04:38:14.328Z,1.10
2023-04-07T04:40:41.117Z,1.10
2023-04-07T04:43:09.500Z,1.20
2023-04-07T04:45:36.324Z,1.20
2023-04-07T04:48:03.061Z,1.20
2023-04-07T04:50:29.813Z,1.30
2023-04-07T04:52:56.586Z,1.30
2023-04-07T04:55:23.302Z,1.40
2023-04-07T04:57:49.988Z,1.40
2023-04-07T05:00:16.970Z,1.50
2023-04-07T05:02:43.980Z,1.50
2023-04-07T05:05:11.238Z,1.50
2023-04-07T05:07:38.639Z,1.50
2023-04-07T05:10:06.728Z,1.60
2023-04-07T05:12:33.651Z,1.70
2023-04-07T05:15:00.721Z,1.70
2023-04-07T05:17:27.562Z,1.80
2023-04-07T05:19:54.384Z,1.90
2023-04-07T05:22:21.509Z,1.90
2023-04-07T05:24:48.251Z,2.00
2023-04-07T05:27:15.051Z,2.00
2023-04-07T05:29:41.954Z,2.20
2023-04-07T05:32:08.946Z,2.20
2023-04-07T05:34:36.088Z,2.30
2023-04-07T05:37:02.792Z,2.40
2023-04-07T05:39:29.469Z,2.50
2023-04-07T05:41:57.329Z,2.60
2023-04-07T05:44:24.040Z,2.60
2023-04-07T05:46:51.131Z,2.70
2023-04-07T05:49:20.252Z,2.80
2023-04-07T05:51:48.764Z,2.90
2023-04-07T05:54:16.014Z,2.90
2023-04-07T05:56:42.764Z,3.10
2023-04-07T05:59:10.023Z,3.20
2023-04-07T06:01:36.787Z,3.40
2023-04-07T06:04:04.356Z,3.50
2023-04-07T06:06:31.458Z,3.60
2023-04-07T06:08:58.376Z,3.60
2023-04-07T06:11:26.475Z,3.80
2023-04-07T06:13:53.334Z,3.90
2023-04-07T06:16:20.109Z,4.10
2023-04-07T06:18:47.406Z,4.10
2023-04-07T06:21:14.216Z,4.30
2023-04-07T06:23:41.104Z,4.40
2023-04-07T06:26:12.236Z,4.50
2023-04-07T06:28:39.620Z,4.70
2023-04-07T06:31:07.234Z,4.90
2023-04-07T06:33:34.100Z,4.90
2023-04-07T06:36:00.830Z,5.20
2023-04-07T06:38:27.684Z,5.30
2023-04-07T06:40:54.421Z,5.50
2023-04-07T06:43:21.277Z,5.70
2023-04-07T06:45:48.051Z,5.90
2023-04-07T06:48:14.862Z,6.00
2023-04-07T06:50:41.715Z,6.30
2023-04-07T06:53:08.546Z,6.30
2023-04-07T06:55:35.601Z,6.50
2023-04-07T06:58:02.475Z,6.70
2023-04-07T07:00:30.953Z,6.90
2023-04-07T07:02:58.049Z,6.90
2023-04-07T07:05:25.677Z,6.80
2023-04-07T07:07:52.379Z,6.70
2023-04-07T07:10:22.810Z,7.10
2023-04-07T07:12:50.855Z,7.30
2023-04-07T07:15:18.259Z,7.50
2023-04-07T07:17:45.209Z,7.50
2023-04-07T07:20:12.196Z,7.80
2023-04-07T07:22:39.978Z,7.90
2023-04-07T07:25:07.194Z,8.10
2023-04-07T07:27:33.970Z,8.20
2023-04-07T07:30:01.245Z,8.40
2023-04-07T07:32:29.010Z,8.90
2023-04-07T07:34:55.775Z,9.60
2023-04-07T07:39:49.694Z,11.90
2023-04-07T07:42:16.583Z,12.50
2023-04-07T07:44:43.309Z,13.20
2023-04-07T07:47:10.573Z,14.30
2023-04-07T07:49:37.652Z,15.00
2023-04-07T07:52:04.482Z,15.70
2023-04-07T07:54:31.230Z,15.60
2023-04-07T07:56:58.107Z,15.50
2023-04-07T07:59:24.883Z,15.50
2023-04-07T08:01:51.664Z,15.60
2023-04-07T08:04:18.579Z,16.40
2023-04-07T08:06:47.133Z,17.20
2023-04-07T08:09:16.815Z,17.70
2023-04-07T08:11:43.786Z,17.80
2023-04-07T08:14:10.568Z,18.70
2023-04-07T08:16:38.438Z,19.20
2023-04-07T08:19:05.515Z,19.60
2023-04-07T08:21:32.356Z,20.00
2023-04-07T08:23:59.194Z,19.40
2023-04-07T08:26:25.993Z,20.00
2023-04-07T08:28:53.536Z,20.00
2023-04-07T08:31:20.385Z,20.00
2023-04-07T08:33:47.502Z,20.00
2023-04-07T08:36:14.568Z,20.10
2023-04-07T08:38:41.381Z,20.30
2023-04-07T08:41:13.641Z,20.30
2023-04-07T08:43:42.528Z,21.20
2023-04-07T08:46:10.769Z,22.30
2023-04-07T08:48:38.782Z,22.70
2023-04-07T08:51:08.507Z,23.40
2023-04-07T08:53:43.622Z,23.60
2023-04-07T08:56:13.352Z,23.70
2023-04-07T08:58:40.738Z,22.70
2023-04-07T09:01:08.395Z,23.10
2023-04-07T09:03:35.526Z,22.80
2023-04-07T09:06:02.662Z,22.50
2023-04-07T09:08:29.548Z,22.00
2023-04-07T09:10:57.778Z,22.40
2023-04-07T09:13:25.591Z,22.50
2023-04-07T09:15:52.331Z,24.00
2023-04-07T09:18:19.719Z,24.70
2023-04-07T09:21:01.482Z,25.90
2023-04-07T09:23:29.393Z,27.20
2023-04-07T09:25:56.220Z,28.00
2023-04-07T09:28:23.118Z,27.70
2023-04-07T09:30:54.622Z,27.50
2023-04-07T09:33:30.770Z,26.30
2023-04-07T09:35:58.533Z,27.40
2023-04-07T09:38:37.718Z,26.90
2023-04-07T09:41:14.332Z,28.00
2023-04-07T09:43:44.871Z,28.30
2023-04-07T09:46:16.486Z,28.30
2023-04-07T09:48:44.827Z,27.70
2023-04-07T09:51:17.218Z,28.10
2023-04-07T09:53:51.622Z,28.00
2023-04-07T09:56:22.240Z,28.20
2023-04-07T09:58:53.303Z,28.00
2023-04-07T10:01:22.984Z,28.20
2023-04-07T10:03:51.177Z,27.80
2023-04-07T10:06:19.429Z,27.00
2023-04-07T10:08:46.404Z,26.90
2023-04-07T10:11:13.454Z,27.10
2023-04-07T10:13:41.342Z,25.90
2023-04-07T10:16:08.476Z,25.00
2023-04-07T10:18:36.934Z,24.80
2023-04-07T10:21:06.776Z,24.00
2023-04-07T10:23:42.199Z,23.60
2023-04-07T10:26:09.855Z,22.30
2023-04-07T10:28:41.268Z,21.80
2023-04-07T10:31:08.444Z,21.40
2023-04-07T10:33:51.758Z,20.60
2023-04-07T10:36:20.835Z,20.00
2023-04-07T10:39:09.052Z,19.40
2023-04-07T10:41:37.437Z,19.10
2023-04-07T10:44:28.072Z,18.60
2023-04-07T10:47:06.376Z,18.30
2023-04-07T10:49:36.739Z,18.30
2023-04-07T10:52:12.472Z,18.20
2023-04-07T10:54:44.403Z,18.10
2023-04-07T10:57:15.876Z,18.40
2023-04-07T11:00:11.522Z,18.50
2023-04-07T11:02:39.983Z,18.10
2023-04-07T11:05:07.497Z,17.80
2023-04-07T11:07:44.921Z,17.60
2023-04-07T11:10:13.378Z,17.20
2023-04-07T11:12:40.422Z,17.10
2023-04-07T11:15:23.019Z,17.40
2023-04-07T11:18:28.076Z,17.10
2023-04-07T11:20:58.619Z,17.10
2023-04-07T11:23:27.252Z,17.20
2023-04-07T11:26:02.052Z,17.70
2023-04-07T11:28:29.797Z,18.10
2023-04-07T11:30:58.271Z,18.50
2023-04-07T11:33:31.424Z,18.50
2023-04-07T11:36:00.538Z,18.00
2023-04-07T11:38:29.126Z,17.80
2023-04-07T11:40:56.992Z,17.80
2023-04-07T11:43:26.527Z,17.30
2023-04-07T11:46:07.658Z,17.40
2023-04-07T11:48:38.517Z,16.90
2023-04-07T11:51:05.782Z,16.70
2023-04-07T11:53:34.810Z,16.60
2023-04-07T11:56:07.654Z,16.70
2023-04-07T11:58:34.830Z,16.40
2023-04-07T12:01:05.897Z,16.40
2023-04-07T12:03:35.050Z,16.30
2023-04-07T12:06:02.927Z,16.10
2023-04-07T12:08:43.760Z,15.90
2023-04-07T12:11:10.985Z,16.10
2023-04-07T12:13:38.625Z,16.10
2023-04-07T12:16:05.715Z,16.00
2023-04-07T12:18:32.686Z,16.00
2023-04-07T12:20:59.483Z,16.20
2023-04-07T12:23:26.652Z,16.30
2023-04-07T12:25:53.468Z,16.70
2023-04-07T12:28:20.452Z,16.90
2023-04-07T12:30:47.212Z,16.80
2023-04-07T12:33:13.927Z,16.80
2023-04-07T12:35:40.717Z,16.80
2023-04-07T12:38:08.403Z,16.60
2023-04-07T12:40:35.951Z,16.50
2023-04-07T12:43:03.697Z,16.40
2023-04-07T12:45:31.274Z,16.30
2023-04-07T12:47:59.696Z,16.30
2023-04-07T12:50:26.763Z,16.20
2023-04-07T12:52:54.699Z,16.20
2023-04-07T12:55:21.540Z,16.10
2023-04-07T12:57:48.639Z,16.00
2023-04-07T13:00:15.680Z,15.90
2023-04-07T13:02:43.693Z,15.80
2023-04-07T13:05:12.843Z,15.80
2023-04-07T13:07:39.589Z,15.70
2023-04-07T13:10:08.362Z,15.80
2023-04-07T13:12:35.554Z,15.70
2023-04-07T13:15:02.914Z,15.60
2023-04-07T13:17:30.141Z,15.50
2023-04-07T13:19:57.076Z,15.30
2023-04-07T13:22:24.715Z,15.10
2023-04-07T13:24:51.661Z,14.90
2023-04-07T13:27:18.404Z,15.00
2023-04-07T13:29:45.232Z,15.00
2023-04-07T13:32:15.506Z,15.60
2023-04-07T13:34:42.510Z,16.00
2023-04-07T13:37:09.433Z,16.30
2023-04-07T13:39:36.223Z,16.30
2023-04-07T13:42:03.374Z,16.20
2023-04-07T13:44:30.256Z,15.70
2023-04-07T13:46:58.194Z,15.50
2023-04-07T13:49:25.292Z,15.20
2023-04-07T13:51:52.092Z,15.10
2023-04-07T13:54:18.897Z,15.00
2023-04-07T13:56:45.661Z,15.00
2023-04-07T13:59:12.460Z,14.90
2023-04-07T14:01:39.463Z,14.90
2023-04-07T14:04:06.902Z,14.80
2023-04-07T14:06:34.095Z,14.70
2023-04-07T14:09:00.935Z,14.60
2023-04-07T14:11:27.753Z,14.60
2023-04-07T14:13:57.074Z,14.50
2023-04-07T14:16:25.105Z,14.70
2023-04-07T14:18:51.949Z,14.50
2023-04-07T14:21:20.035Z,14.50
2023-04-07T14:23:46.787Z,14.50
2023-04-07T14:26:13.710Z,14.50
2023-04-07T14:28:40.992Z,14.40
2023-04-07T14:31:14.287Z,14.40
2023-04-07T14:33:41.774Z,14.40
2023-04-07T14:36:08.602Z,14.30
2023-04-07T14:38:35.546Z,14.20
2023-04-07T14:43:33.532Z,14.10
2023-04-07T14:46:00.444Z,14.20
2023-04-07T14:48:27.349Z,14.20
2023-04-07T14:51:08.189Z,14.00
2023-04-07T14:53:36.979Z,14.00
2023-04-07T14:56:07.019Z,13.90
2023-04-07T14:58:33.960Z,14.00
2023-04-07T15:01:00.710Z,13.90
2023-04-07T15:03:27.668Z,13.90
2023-04-07T15:05:54.666Z,13.90
2023-04-07T15:08:21.386Z,14.00
2023-04-07T15:10:48.545Z,14.00
2023-04-07T15:13:15.328Z,14.20
2023-04-07T15:15:44.326Z,14.40
2023-04-07T15:18:11.150Z,14.70
2023-04-07T15:20:37.885Z,14.70
2023-04-07T15:23:04.606Z,14.90
2023-04-07T15:25:31.365Z,14.90
2023-04-07T15:27:58.133Z,15.00
2023-04-07T15:30:24.948Z,15.00
2023-04-07T15:33:02.883Z,15.00
2023-04-07T15:35:30.406Z,14.90
2023-04-07T15:37:57.226Z,14.90
2023-04-07T15:40:23.962Z,14.80
2023-04-07T15:42:50.739Z,14.80
2023-04-07T15:45:17.541Z,14.80
2023-04-07T15:47:44.273Z,14.80
2023-04-07T15:50:11.396Z,14.80
2023-04-07T15:52:38.162Z,14.70
2023-04-07T15:55:05.831Z,14.50
2023-04-07T15:57:32.538Z,14.50
2023-04-07T15:59:59.366Z,14.50
2023-04-07T16:02:26.349Z,14.50
2023-04-07T16:04:54.199Z,14.40
2023-04-07T16:07:21.114Z,14.30
2023-04-07T16:09:47.917Z,14.10
2023-04-07T16:12:14.678Z,13.90
2023-04-07T16:14:41.436Z,13.80
2023-04-07T16:17:08.182Z,13.70
2023-04-07T16:19:34.884Z,13.60
2023-04-07T16:22:01.621Z,13.40
2023-04-07T16:24:28.526Z,13.40
2023-04-07T16:26:55.866Z,13.30
2023-04-07T16:29:22.657Z,13.20
2023-04-07T16:31:49.570Z,13.10
2023-04-07T16:34:16.385Z,13.00
2023-04-07T16:36:43.187Z,12.90
2023-04-07T16:39:09.967Z,12.80
2023-04-07T16:41:36.690Z,12.80
2023-04-07T16:44:03.365Z,12.70
2023-04-07T16:46:30.568Z,12.60
2023-04-07T16:48:57.417Z,12.50
2023-04-07T16:51:24.837Z,12.50
2023-04-07T16:53:51.556Z,12.40
2023-04-07T16:56:20.276Z,12.30
2023-04-07T16:58:48.358Z,12.20
2023-04-07T17:01:15.835Z,12.10
2023-04-07T17:03:42.856Z,12.00
2023-04-07T17:06:09.829Z,11.80
2023-04-07T17:08:38.283Z,11.60
2023-04-07T17:11:08.751Z,11.40
2023-04-07T17:13:36.032Z,11.20
2023-04-07T17:16:04.076Z,11.10
2023-04-07T17:18:32.707Z,10.90
2023-04-07T17:20:59.434Z,10.70
2023-04-07T17:23:28.233Z,10.50
2023-04-07T17:25:55.090Z,10.40
2023-04-07T17:28:21.872Z,10.30
2023-04-07T17:30:48.744Z,10.10
2023-04-07T17:33:15.538Z,9.90
2023-04-07T17:35:42.445Z,9.80
2023-04-07T17:38:09.283Z,9.70
2023-04-07T17:40:36.007Z,9.50
2023-04-07T17:43:02.747Z,9.40
2023-04-07T17:45:29.564Z,9.30
2023-04-07T17:47:56.430Z,9.10
2023-04-07T17:50:23.487Z,9.00
2023-04-07T17:52:51.414Z,8.90
2023-04-07T17:55:18.573Z,8.70
2023-04-07T17:57:45.743Z,8.60
2023-04-07T18:00:12.787Z,8.50
2023-04-07T18:02:40.565Z,8.40
2023-04-07T18:05:08.211Z,8.30
2023-04-07T18:07:35.161Z,8.20
2023-04-07T18:10:03.280Z,8.10
2023-04-07T18:12:32.022Z,8.00
2023-04-07T18:14:58.860Z,7.80
2023-04-07T18:17:25.667Z,7.70
2023-04-07T18:19:52.461Z,7.60
2023-04-07T18:22:19.285Z,7.40
2023-04-07T18:24:46.051Z,7.30
2023-04-07T18:27:15.018Z,7.30
2023-04-07T18:29:41.755Z,7.20
2023-04-07T18:32:08.500Z,7.00
2023-04-07T18:34:35.417Z,6.90
2023-04-07T18:37:02.149Z,6.80
2023-04-07T18:39:28.874Z,6.70
2023-04-07T18:41:57.429Z,6.60
2023-04-07T18:44:26.116Z,6.50
2023-04-07T18:46:53.756Z,6.50
2023-04-07T18:49:20.622Z,6.40
2023-04-07T18:51:48.273Z,6.30
2023-04-07T18:54:15.087Z,6.20
2023-04-07T18:56:41.819Z,6.20
2023-04-07T18:59:08.560Z,6.10
2023-04-07T19:01:35.723Z,6.00
2023-04-07T19:04:02.980Z,5.80
2023-04-07T19:06:31.909Z,5.70
2023-04-07T19:08:59.424Z,5.60
2023-04-07T19:11:27.027Z,5.50
2023-04-07T19:13:53.960Z,5.50
2023-04-07T19:16:21.792Z,5.40
2023-04-07T19:18:48.639Z,5.40
2023-04-07T19:21:15.441Z,5.40
2023-04-07T19:23:42.374Z,5.30
2023-04-07T19:26:13.088Z,5.20
2023-04-07T19:28:41.256Z,5.20
2023-04-07T19:31:08.917Z,5.10
2023-04-07T19:33:35.728Z,5.00
2023-04-07T19:36:03.619Z,4.90
2023-04-07T19:38:30.432Z,4.90
2023-04-07T19:40:57.130Z,4.80
2023-04-07T19:43:23.936Z,4.80
2023-04-07T19:45:50.679Z,4.70
2023-04-07T19:48:17.728Z,4.60
2023-04-07T19:50:48.164Z,4.60
2023-04-07T19:53:18.063Z,4.60
2023-04-07T19:55:49.080Z,4.50
2023-04-07T19:58:21.086Z,4.50
2023-04-07T20:00:50.683Z,4.50
2023-04-07T20:03:18.143Z,4.60
2023-04-07T20:05:45.366Z,4.60
2023-04-07T20:08:12.209Z,4.60
2023-04-07T20:10:38.967Z,4.60
2023-04-07T20:13:06.485Z,4.60
2023-04-07T20:15:33.315Z,4.60
2023-04-07T20:18:00.329Z,4.70
2023-04-07T20:20:27.135Z,4.60
2023-04-07T20:22:53.840Z,4.60
2023-04-07T20:25:20.793Z,4.60
2023-04-07T20:27:49.972Z,4.60
2023-04-07T20:30:16.920Z,4.60
2023-04-07T20:32:46.993Z,4.60
2023-04-07T20:35:13.947Z,4.60
2023-04-07T20:37:40.841Z,4.60
2023-04-07T20:40:08.329Z,4.60
2023-04-07T20:42:35.729Z,4.70
2023-04-07T20:45:04.675Z,4.60
2023-04-07T20:47:32.276Z,4.50
2023-04-07T20:49:59.044Z,4.50
2023-04-07T20:52:27.304Z,4.50
2023-04-07T20:54:54.126Z,4.50
2023-04-07T20:57:20.837Z,4.50
2023-04-07T20:59:47.563Z,4.50
2023-04-07T21:02:14.464Z,4.50
2023-04-07T21:04:41.549Z,4.50
2023-04-07T21:07:08.299Z,4.60
2023-04-07T21:09:35.063Z,4.60
2023-04-07T21:12:03.510Z,4.50
2023-04-07T21:14:31.922Z,4.50
2023-04-07T21:16:59.252Z,4.60
2023-04-07T21:19:26.148Z,4.70
2023-04-07T21:21:52.896Z,4.70
2023-04-07T21:24:21.612Z,4.70
2023-04-07T21:26:48.366Z,4.70
2023-04-07T21:29:15.379Z,4.70
2023-04-07T21:31:42.844Z,4.70
2023-04-07T21:34:09.739Z,4.70
2023-04-07T21:36:37.602Z,4.70
2023-04-07T21:39:04.605Z,4.70
2023-04-07T21:41:31.299Z,4.90
2023-04-07T21:43:58.034Z,4.90
2023-04-07T21:46:24.851Z,5.00
2023-04-07T21:48:52.032Z,5.00
2023-04-07T21:51:19.176Z,5.10
2023-04-07T21:53:46.268Z,5.10
2023-04-07T21:56:13.654Z,5.10
2023-04-07T21:58:41.912Z,5.00
2023-04-07T22:01:08.710Z,5.20
2023-04-07T22:03:35.612Z,5.20
2023-04-07T22:06:02.513Z,5.20
2023-04-07T22:08:29.201Z,5.20
2023-04-07T22:10:56.950Z,5.20
2023-04-07T22:13:23.736Z,5.20
2023-04-07T22:15:50.949Z,5.20
2023-04-07T22:18:18.180Z,5.20
2023-04-07T22:20:45.982Z,5.10
2023-04-07T22:23:12.708Z,5.10
2023-04-07T22:25:39.613Z,5.10
2023-04-07T22:28:06.556Z,5.10
2023-04-07T22:30:33.366Z,5.10
2023-04-07T22:33:00.546Z,5.20
2023-04-07T22:35:27.350Z,5.10
2023-04-07T22:37:54.172Z,5.10
2023-04-07T22:40:21.036Z,5.10
2023-04-07T22:42:47.785Z,5.10
2023-04-07T22:45:14.528Z,5.10
2023-04-07T22:47:41.349Z,5.00
2023-04-07T22:50:08.390Z,4.90
2023-04-07T22:52:35.330Z,4.90
2023-04-07T22:55:02.147Z,4.90
2023-04-07T22:57:28.972Z,5.00
2023-04-07T22:59:55.720Z,4.80
2023-04-07T23:02:22.960Z,4.80
2023-04-07T23:04:51.031Z,4.70
2023-04-07T23:07:17.716Z,4.60
2023-04-07T23:09:44.457Z,4.60
2023-04-07T23:12:11.133Z,4.60
2023-04-07T23:14:37.901Z,4.50
2023-04-07T23:17:04.605Z,4.50
2023-04-07T23:19:31.344Z,4.40
2023-04-07T23:21:58.033Z,4.30
2023-04-07T23:24:24.718Z,4.30
2023-04-07T23:26:51.400Z,4.30
2023-04-07T23:29:18.289Z,4.20
2023-04-07T23:31:45.104Z,4.20
2023-04-07T23:34:11.860Z,4.20
2023-04-07T23:36:39.632Z,4.10
2023-04-07T23:39:06.391Z,4.10
2023-04-07T23:41:33.214Z,4.00
2023-04-07T23:43:59.960Z,3.90
2023-04-07T23:46:26.698Z,3.90
2023-04-07T23:48:53.639Z,3.80
2023-04-07T23:51:20.342Z,3.80
2023-04-07T23:53:47.098Z,3.80
2023-04-07T23:56:13.836Z,3.80
2023-04-07T23:58:40.867Z,3.70
